sensor_id;sensor_type;location;lat;lon;timestamp;P1;durP1;ratioP1;P2;durP2;ratioP2
39956;SDS011;48483;44.640;7.494;2023-04-01T00:02:00;1.70;;;0.90;;
39956;SDS011;48483;44.640;7.494;2023-04-01T00:04:27;1.75;;;1.15;;
39956;SDS011;48483;44.640;7.494;2023-04-01T00:06:54;1.85;;;1.15;;
39956;SDS011;48483;44.640;7.494;2023-04-01T00:09:21;3.35;;;1.00;;
39956;SDS011;48483;44.640;7.494;2023-04-01T00:11:49;1.02;;;0.90;;
39956;SDS011;48483;44.640;7.494;2023-04-01T00:14:15;1.95;;;0.98;;
39956;SDS011;48483;44.640;7.494;2023-04-01T00:16:42;2.17;;;1.45;;
39956;SDS011;48483;44.640;7.494;2023-04-01T00:19:09;2.00;;;0.98;;
39956;SDS011;48483;44.640;7.494;2023-04-01T00:21:36;2.22;;;1.10;;
39956;SDS011;48483;44.640;7.494;2023-04-01T00:24:02;1.70;;;1.13;;
39956;SDS011;48483;44.640;7.494;2023-04-01T00:26:29;2.08;;;1.00;;
39956;SDS011;48483;44.640;7.494;2023-04-01T00:28:57;1.15;;;0.85;;
39956;SDS011;48483;44.640;7.494;2023-04-01T00:31:24;1.65;;;0.85;;
39956;SDS011;48483;44.640;7.494;2023-04-01T00:33:52;1.95;;;0.90;;
39956;SDS011;48483;44.640;7.494;2023-04-01T00:36:19;2.13;;;1.33;;
39956;SDS011;48483;44.640;7.494;2023-04-01T00:38:49;3.40;;;1.20;;
39956;SDS011;48483;44.640;7.494;2023-04-01T00:41:18;2.15;;;1.00;;
39956;SDS011;48483;44.640;7.494;2023-04-01T00:43:48;1.23;;;0.82;;
39956;SDS011;48483;44.640;7.494;2023-04-01T00:46:17;3.13;;;2.08;;
39956;SDS011;48483;44.640;7.494;2023-04-01T00:48:45;1.30;;;0.90;;
39956;SDS011;48483;44.640;7.494;2023-04-01T00:51:17;1.67;;;0.90;;
39956;SDS011;48483;44.640;7.494;2023-04-01T00:53:48;2.63;;;1.58;;
39956;SDS011;48483;44.640;7.494;2023-04-01T00:56:17;2.78;;;0.88;;
39956;SDS011;48483;44.640;7.494;2023-04-01T00:58:49;2.90;;;0.65;;
39956;SDS011;48483;44.640;7.494;2023-04-01T01:01:21;1.85;;;0.75;;
39956;SDS011;48483;44.640;7.494;2023-04-01T01:03:49;1.63;;;0.57;;
39956;SDS011;48483;44.640;7.494;2023-04-01T01:06:19;0.90;;;0.60;;
39956;SDS011;48483;44.640;7.494;2023-04-01T01:09:10;1.10;;;0.55;;
39956;SDS011;48483;44.640;7.494;2023-04-01T01:14:18;1.40;;;0.60;;
39956;SDS011;48483;44.640;7.494;2023-04-01T01:22:36;0.52;;;0.40;;
39956;SDS011;48483;44.640;7.494;2023-04-01T01:25:20;0.68;;;0.40;;
39956;SDS011;48483;44.640;7.494;2023-04-01T01:27:58;1.05;;;0.50;;
39956;SDS011;48483;44.640;7.494;2023-04-01T01:33:13;1.13;;;0.52;;
39956;SDS011;48483;44.640;7.494;2023-04-01T01:35:53;0.30;;;0.30;;
39956;SDS011;48483;44.640;7.494;2023-04-01T01:38:24;3.55;;;1.15;;
39956;SDS011;48483;44.640;7.494;2023-04-01T01:41:04;1.67;;;0.50;;
39956;SDS011;48483;44.640;7.494;2023-04-01T01:43:33;0.65;;;0.50;;
39956;SDS011;48483;44.640;7.494;2023-04-01T01:46:05;1.20;;;0.50;;
39956;SDS011;48483;44.640;7.494;2023-04-01T01:48:35;1.00;;;0.50;;
39956;SDS011;48483;44.640;7.494;2023-04-01T01:51:05;1.58;;;0.80;;
39956;SDS011;48483;44.640;7.494;2023-04-01T01:53:32;0.93;;;0.50;;
39956;SDS011;48483;44.640;7.494;2023-04-01T01:56:00;2.63;;;0.40;;
39956;SDS011;48483;44.640;7.494;2023-04-01T01:58:30;1.70;;;0.73;;
39956;SDS011;48483;44.640;7.494;2023-04-01T02:01:07;0.45;;;0.30;;
39956;SDS011;48483;44.640;7.494;2023-04-01T02:03:36;1.02;;;0.50;;
39956;SDS011;48483;44.640;7.494;2023-04-01T02:06:07;2.63;;;0.50;;
39956;SDS011;48483;44.640;7.494;2023-04-01T02:08:37;0.73;;;0.40;;
39956;SDS011;48483;44.640;7.494;2023-04-01T02:11:08;1.38;;;0.40;;
39956;SDS011;48483;44.640;7.494;2023-04-01T02:13:40;0.93;;;0.32;;
39956;SDS011;48483;44.640;7.494;2023-04-01T02:16:14;0.55;;;0.40;;
39956;SDS011;48483;44.640;7.494;2023-04-01T02:18:47;3.88;;;0.40;;
39956;SDS011;48483;44.640;7.494;2023-04-01T02:21:17;0.93;;;0.20;;
39956;SDS011;48483;44.640;7.494;2023-04-01T02:23:46;0.35;;;0.20;;
39956;SDS011;48483;44.640;7.494;2023-04-01T02:26:13;0.50;;;0.30;;
39956;SDS011;48483;44.640;7.494;2023-04-01T02:28:41;1.05;;;0.25;;
39956;SDS011;48483;44.640;7.494;2023-04-01T02:31:11;0.20;;;0.20;;
39956;SDS011;48483;44.640;7.494;2023-04-01T02:33:40;0.35;;;0.28;;
39956;SDS011;48483;44.640;7.494;2023-04-01T02:36:10;2.00;;;0.30;;
39956;SDS011;48483;44.640;7.494;2023-04-01T02:38:39;1.35;;;0.20;;
39956;SDS011;48483;44.640;7.494;2023-04-01T02:41:07;0.35;;;0.30;;
39956;SDS011;48483;44.640;7.494;2023-04-01T02:43:33;0.20;;;0.20;;
39956;SDS011;48483;44.640;7.494;2023-04-01T02:46:01;0.50;;;0.20;;
39956;SDS011;48483;44.640;7.494;2023-04-01T02:48:27;0.77;;;0.75;;
39956;SDS011;48483;44.640;7.494;2023-04-01T02:50:54;0.55;;;0.30;;
39956;SDS011;48483;44.640;7.494;2023-04-01T02:53:21;2.58;;;0.28;;
39956;SDS011;48483;44.640;7.494;2023-04-01T02:55:49;0.45;;;0.20;;
39956;SDS011;48483;44.640;7.494;2023-04-01T02:58:17;0.35;;;0.20;;
39956;SDS011;48483;44.640;7.494;2023-04-01T03:00:44;1.40;;;0.40;;
39956;SDS011;48483;44.640;7.494;2023-04-01T03:03:11;0.60;;;0.40;;
39956;SDS011;48483;44.640;7.494;2023-04-01T03:05:39;0.85;;;0.55;;
39956;SDS011;48483;44.640;7.494;2023-04-01T03:08:06;1.35;;;0.70;;
39956;SDS011;48483;44.640;7.494;2023-04-01T03:10:33;1.05;;;0.50;;
39956;SDS011;48483;44.640;7.494;2023-04-01T03:13:01;1.27;;;0.60;;
39956;SDS011;48483;44.640;7.494;2023-04-01T03:15:28;0.40;;;0.40;;
39956;SDS011;48483;44.640;7.494;2023-04-01T03:17:55;1.52;;;0.60;;
39956;SDS011;48483;44.640;7.494;2023-04-01T03:20:22;0.55;;;0.45;;
39956;SDS011;48483;44.640;7.494;2023-04-01T03:22:49;1.35;;;0.55;;
39956;SDS011;48483;44.640;7.494;2023-04-01T03:25:17;0.82;;;0.60;;
39956;SDS011;48483;44.640;7.494;2023-04-01T03:27:44;1.38;;;0.47;;
39956;SDS011;48483;44.640;7.494;2023-04-01T03:30:13;0.40;;;0.40;;
39956;SDS011;48483;44.640;7.494;2023-04-01T03:32:48;1.13;;;0.68;;
39956;SDS011;48483;44.640;7.494;2023-04-01T03:35:15;1.60;;;0.30;;
39956;SDS011;48483;44.640;7.494;2023-04-01T03:37:42;1.30;;;0.60;;
39956;SDS011;48483;44.640;7.494;2023-04-01T03:40:09;2.08;;;0.43;;
39956;SDS011;48483;44.640;7.494;2023-04-01T03:42:36;0.85;;;0.32;;
39956;SDS011;48483;44.640;7.494;2023-04-01T03:45:04;0.90;;;0.30;;
39956;SDS011;48483;44.640;7.494;2023-04-01T03:47:33;0.40;;;0.30;;
39956;SDS011;48483;44.640;7.494;2023-04-01T03:50:00;0.30;;;0.20;;
39956;SDS011;48483;44.640;7.494;2023-04-01T03:52:26;0.85;;;0.30;;
39956;SDS011;48483;44.640;7.494;2023-04-01T03:54:53;0.40;;;0.30;;
39956;SDS011;48483;44.640;7.494;2023-04-01T03:57:21;0.57;;;0.30;;
39956;SDS011;48483;44.640;7.494;2023-04-01T03:59:47;0.20;;;0.20;;
39956;SDS011;48483;44.640;7.494;2023-04-01T04:02:14;1.30;;;0.32;;
39956;SDS011;48483;44.640;7.494;2023-04-01T04:04:43;0.50;;;0.30;;
39956;SDS011;48483;44.640;7.494;2023-04-01T04:07:12;0.30;;;0.30;;
39956;SDS011;48483;44.640;7.494;2023-04-01T04:10:11;1.63;;;0.38;;
39956;SDS011;48483;44.640;7.494;2023-04-01T04:12:38;0.32;;;0.30;;
39956;SDS011;48483;44.640;7.494;2023-04-01T04:15:06;0.43;;;0.30;;
39956;SDS011;48483;44.640;7.494;2023-04-01T04:17:34;0.20;;;0.20;;
39956;SDS011;48483;44.640;7.494;2023-04-01T04:20:02;3.35;;;0.57;;
39956;SDS011;48483;44.640;7.494;2023-04-01T04:22:30;1.95;;;0.30;;
39956;SDS011;48483;44.640;7.494;2023-04-01T04:24:57;0.20;;;0.20;;
39956;SDS011;48483;44.640;7.494;2023-04-01T04:27:24;2.42;;;0.40;;
39956;SDS011;48483;44.640;7.494;2023-04-01T04:29:58;0.30;;;0.30;;
39956;SDS011;48483;44.640;7.494;2023-04-01T04:32:25;1.17;;;0.30;;
39956;SDS011;48483;44.640;7.494;2023-04-01T04:34:52;4.95;;;0.30;;
39956;SDS011;48483;44.640;7.494;2023-04-01T04:37:20;0.60;;;0.30;;
39956;SDS011;48483;44.640;7.494;2023-04-01T04:39:47;1.23;;;0.30;;
39956;SDS011;48483;44.640;7.494;2023-04-01T04:42:14;0.75;;;0.20;;
39956;SDS011;48483;44.640;7.494;2023-04-01T04:44:41;0.93;;;0.20;;
39956;SDS011;48483;44.640;7.494;2023-04-01T04:47:08;0.60;;;0.20;;
39956;SDS011;48483;44.640;7.494;2023-04-01T04:49:36;0.88;;;0.20;;
39956;SDS011;48483;44.640;7.494;2023-04-01T04:52:07;2.78;;;0.50;;
39956;SDS011;48483;44.640;7.494;2023-04-01T04:54:35;1.58;;;0.43;;
39956;SDS011;48483;44.640;7.494;2023-04-01T04:57:03;0.47;;;0.30;;
39956;SDS011;48483;44.640;7.494;2023-04-01T04:59:35;2.08;;;0.52;;
39956;SDS011;48483;44.640;7.494;2023-04-01T05:02:10;1.67;;;0.47;;
39956;SDS011;48483;44.640;7.494;2023-04-01T05:07:23;1.33;;;0.40;;
39956;SDS011;48483;44.640;7.494;2023-04-01T05:09:51;2.72;;;0.40;;
39956;SDS011;48483;44.640;7.494;2023-04-01T05:12:18;2.40;;;0.50;;
39956;SDS011;48483;44.640;7.494;2023-04-01T05:15:02;0.95;;;0.40;;
39956;SDS011;48483;44.640;7.494;2023-04-01T05:17:29;0.30;;;0.30;;
39956;SDS011;48483;44.640;7.494;2023-04-01T05:19:56;1.88;;;0.47;;
39956;SDS011;48483;44.640;7.494;2023-04-01T05:22:24;1.63;;;0.50;;
39956;SDS011;48483;44.640;7.494;2023-04-01T05:24:52;0.65;;;0.25;;
39956;SDS011;48483;44.640;7.494;2023-04-01T05:27:19;0.20;;;0.20;;
39956;SDS011;48483;44.640;7.494;2023-04-01T05:29:46;0.43;;;0.30;;
39956;SDS011;48483;44.640;7.494;2023-04-01T05:32:39;0.95;;;0.40;;
39956;SDS011;48483;44.640;7.494;2023-04-01T05:35:06;0.82;;;0.30;;
39956;SDS011;48483;44.640;7.494;2023-04-01T05:37:33;1.75;;;0.30;;
39956;SDS011;48483;44.640;7.494;2023-04-01T05:40:02;0.22;;;0.20;;
39956;SDS011;48483;44.640;7.494;2023-04-01T05:42:30;0.45;;;0.22;;
39956;SDS011;48483;44.640;7.494;2023-04-01T05:44:56;1.38;;;0.57;;
39956;SDS011;48483;44.640;7.494;2023-04-01T05:47:42;1.10;;;0.52;;
39956;SDS011;48483;44.640;7.494;2023-04-01T05:50:09;7.05;;;0.90;;
39956;SDS011;48483;44.640;7.494;2023-04-01T05:52:36;1.73;;;0.50;;
39956;SDS011;48483;44.640;7.494;2023-04-01T05:55:05;0.90;;;0.50;;
39956;SDS011;48483;44.640;7.494;2023-04-01T05:57:32;1.13;;;0.45;;
39956;SDS011;48483;44.640;7.494;2023-04-01T05:59:59;1.00;;;0.60;;
39956;SDS011;48483;44.640;7.494;2023-04-01T06:02:26;5.57;;;0.70;;
39956;SDS011;48483;44.640;7.494;2023-04-01T06:04:53;1.20;;;0.40;;
39956;SDS011;48483;44.640;7.494;2023-04-01T06:07:37;4.88;;;0.60;;
39956;SDS011;48483;44.640;7.494;2023-04-01T06:10:10;0.95;;;0.50;;
39956;SDS011;48483;44.640;7.494;2023-04-01T06:12:44;0.50;;;0.28;;
39956;SDS011;48483;44.640;7.494;2023-04-01T06:18:13;4.25;;;0.88;;
39956;SDS011;48483;44.640;7.494;2023-04-01T06:21:03;3.33;;;2.00;;
39956;SDS011;48483;44.640;7.494;2023-04-01T06:23:56;4.15;;;2.88;;
39956;SDS011;48483;44.640;7.494;2023-04-01T06:26:36;4.07;;;2.50;;
39956;SDS011;48483;44.640;7.494;2023-04-01T06:29:25;3.97;;;2.28;;
39956;SDS011;48483;44.640;7.494;2023-04-01T06:32:09;4.13;;;2.33;;
39956;SDS011;48483;44.640;7.494;2023-04-01T06:34:54;2.22;;;1.63;;
39956;SDS011;48483;44.640;7.494;2023-04-01T06:40:26;5.63;;;2.53;;
39956;SDS011;48483;44.640;7.494;2023-04-01T06:43:17;1.98;;;0.90;;
39956;SDS011;48483;44.640;7.494;2023-04-01T06:46:11;4.53;;;2.92;;
39956;SDS011;48483;44.640;7.494;2023-04-01T06:49:07;2.60;;;1.90;;
39956;SDS011;48483;44.640;7.494;2023-04-01T06:52:23;7.63;;;1.70;;
39956;SDS011;48483;44.640;7.494;2023-04-01T06:55:32;11.82;;;1.77;;
39956;SDS011;48483;44.640;7.494;2023-04-01T06:58:19;8.13;;;2.17;;
39956;SDS011;48483;44.640;7.494;2023-04-01T07:00:49;4.25;;;2.22;;
39956;SDS011;48483;44.640;7.494;2023-04-01T07:03:20;4.40;;;2.40;;
39956;SDS011;48483;44.640;7.494;2023-04-01T07:05:52;6.72;;;2.05;;
39956;SDS011;48483;44.640;7.494;2023-04-01T07:08:23;6.60;;;2.70;;
39956;SDS011;48483;44.640;7.494;2023-04-01T07:10:53;6.80;;;2.10;;
39956;SDS011;48483;44.640;7.494;2023-04-01T07:16:12;1.98;;;1.00;;
39956;SDS011;48483;44.640;7.494;2023-04-01T07:18:44;2.17;;;0.90;;
39956;SDS011;48483;44.640;7.494;2023-04-01T07:21:19;2.13;;;0.65;;
39956;SDS011;48483;44.640;7.494;2023-04-01T07:23:52;2.58;;;0.98;;
39956;SDS011;48483;44.640;7.494;2023-04-01T07:26:33;3.88;;;0.70;;
39956;SDS011;48483;44.640;7.494;2023-04-01T07:29:08;2.03;;;0.98;;
39956;SDS011;48483;44.640;7.494;2023-04-01T07:31:44;2.45;;;0.75;;
39956;SDS011;48483;44.640;7.494;2023-04-01T07:34:25;3.20;;;0.47;;
39956;SDS011;48483;44.640;7.494;2023-04-01T07:36:54;1.00;;;0.50;;
39956;SDS011;48483;44.640;7.494;2023-04-01T07:39:33;1.08;;;0.55;;
39956;SDS011;48483;44.640;7.494;2023-04-01T07:42:31;1.30;;;0.50;;
39956;SDS011;48483;44.640;7.494;2023-04-01T07:45:09;0.32;;;0.30;;
39956;SDS011;48483;44.640;7.494;2023-04-01T07:47:48;0.50;;;0.28;;
39956;SDS011;48483;44.640;7.494;2023-04-01T07:50:25;1.17;;;0.40;;
39956;SDS011;48483;44.640;7.494;2023-04-01T07:52:55;1.85;;;0.30;;
39956;SDS011;48483;44.640;7.494;2023-04-01T07:55:36;1.40;;;0.60;;
39956;SDS011;48483;44.640;7.494;2023-04-01T07:58:10;1.42;;;0.40;;
39956;SDS011;48483;44.640;7.494;2023-04-01T08:00:48;2.15;;;0.68;;
39956;SDS011;48483;44.640;7.494;2023-04-01T08:03:31;1.27;;;0.40;;
39956;SDS011;48483;44.640;7.494;2023-04-01T08:06:07;1.83;;;0.50;;
39956;SDS011;48483;44.640;7.494;2023-04-01T08:08:47;1.08;;;0.60;;
39956;SDS011;48483;44.640;7.494;2023-04-01T08:11:57;0.75;;;0.45;;
39956;SDS011;48483;44.640;7.494;2023-04-01T08:14:53;2.17;;;0.38;;
39956;SDS011;48483;44.640;7.494;2023-04-01T08:18:14;3.40;;;0.30;;
39956;SDS011;48483;44.640;7.494;2023-04-01T08:20:50;2.00;;;0.32;;
39956;SDS011;48483;44.640;7.494;2023-04-01T08:23:22;0.93;;;0.38;;
39956;SDS011;48483;44.640;7.494;2023-04-01T08:25:53;0.60;;;0.20;;
39956;SDS011;48483;44.640;7.494;2023-04-01T08:28:29;0.52;;;0.30;;
39956;SDS011;48483;44.640;7.494;2023-04-01T08:31:03;0.30;;;0.20;;
39956;SDS011;48483;44.640;7.494;2023-04-01T08:33:35;1.45;;;0.40;;
39956;SDS011;48483;44.640;7.494;2023-04-01T08:36:08;1.50;;;0.60;;
39956;SDS011;48483;44.640;7.494;2023-04-01T08:38:39;1.40;;;0.32;;
39956;SDS011;48483;44.640;7.494;2023-04-01T08:41:15;1.73;;;0.20;;
39956;SDS011;48483;44.640;7.494;2023-04-01T08:44:37;0.30;;;0.20;;
39956;SDS011;48483;44.640;7.494;2023-04-01T08:47:34;1.08;;;0.20;;
39956;SDS011;48483;44.640;7.494;2023-04-01T08:50:35;2.10;;;0.40;;
39956;SDS011;48483;44.640;7.494;2023-04-01T08:53:37;0.10;;;0.10;;
39956;SDS011;48483;44.640;7.494;2023-04-01T08:56:23;1.45;;;0.40;;
39956;SDS011;48483;44.640;7.494;2023-04-01T08:59:11;1.65;;;0.30;;
39956;SDS011;48483;44.640;7.494;2023-04-01T09:05:14;1.70;;;0.28;;
39956;SDS011;48483;44.640;7.494;2023-04-01T09:08:23;0.70;;;0.28;;
39956;SDS011;48483;44.640;7.494;2023-04-01T09:11:03;0.32;;;0.20;;
39956;SDS011;48483;44.640;7.494;2023-04-01T09:14:11;0.47;;;0.15;;
39956;SDS011;48483;44.640;7.494;2023-04-01T09:17:05;1.02;;;0.30;;
39956;SDS011;48483;44.640;7.494;2023-04-01T09:19:51;0.82;;;0.28;;
39956;SDS011;48483;44.640;7.494;2023-04-01T09:22:30;2.10;;;0.20;;
39956;SDS011;48483;44.640;7.494;2023-04-01T09:25:26;1.58;;;0.30;;
39956;SDS011;48483;44.640;7.494;2023-04-01T09:28:13;0.95;;;0.35;;
39956;SDS011;48483;44.640;7.494;2023-04-01T09:30:58;1.42;;;0.43;;
39956;SDS011;48483;44.640;7.494;2023-04-01T09:37:16;0.55;;;0.40;;
39956;SDS011;48483;44.640;7.494;2023-04-01T09:39:47;1.98;;;0.28;;
39956;SDS011;48483;44.640;7.494;2023-04-01T09:42:41;0.60;;;0.50;;
39956;SDS011;48483;44.640;7.494;2023-04-01T09:45:21;0.43;;;0.20;;
39956;SDS011;48483;44.640;7.494;2023-04-01T09:48:06;0.20;;;0.20;;
39956;SDS011;48483;44.640;7.494;2023-04-01T09:50:46;1.13;;;0.30;;
39956;SDS011;48483;44.640;7.494;2023-04-01T09:53:26;0.20;;;0.17;;
39956;SDS011;48483;44.640;7.494;2023-04-01T09:56:22;0.28;;;0.20;;
39956;SDS011;48483;44.640;7.494;2023-04-01T09:59:16;0.40;;;0.20;;
39956;SDS011;48483;44.640;7.494;2023-04-01T10:02:43;0.20;;;0.20;;
39956;SDS011;48483;44.640;7.494;2023-04-01T10:05:40;0.63;;;0.30;;
39956;SDS011;48483;44.640;7.494;2023-04-01T10:11:30;0.25;;;0.20;;
39956;SDS011;48483;44.640;7.494;2023-04-01T10:17:30;2.22;;;0.20;;
39956;SDS011;48483;44.640;7.494;2023-04-01T10:26:10;0.10;;;0.10;;
39956;SDS011;48483;44.640;7.494;2023-04-01T10:35:44;0.47;;;0.20;;
39956;SDS011;48483;44.640;7.494;2023-04-01T10:45:22;0.73;;;0.20;;
39956;SDS011;48483;44.640;7.494;2023-04-01T10:48:22;0.57;;;0.20;;
39956;SDS011;48483;44.640;7.494;2023-04-01T10:51:14;0.73;;;0.30;;
39956;SDS011;48483;44.640;7.494;2023-04-01T10:57:30;2.78;;;0.28;;
39956;SDS011;48483;44.640;7.494;2023-04-01T11:07:51;0.15;;;0.15;;
39956;SDS011;48483;44.640;7.494;2023-04-01T11:11:17;1.05;;;0.20;;
39956;SDS011;48483;44.640;7.494;2023-04-01T11:14:29;0.80;;;0.20;;
39956;SDS011;48483;44.640;7.494;2023-04-01T11:20:41;0.38;;;0.30;;
39956;SDS011;48483;44.640;7.494;2023-04-01T11:24:09;0.20;;;0.20;;
39956;SDS011;48483;44.640;7.494;2023-04-01T11:27:32;1.27;;;0.35;;
39956;SDS011;48483;44.640;7.494;2023-04-01T11:30:19;0.30;;;0.13;;
39956;SDS011;48483;44.640;7.494;2023-04-01T11:32:57;0.38;;;0.20;;
39956;SDS011;48483;44.640;7.494;2023-04-01T11:38:27;0.63;;;0.20;;
39956;SDS011;48483;44.640;7.494;2023-04-01T11:41:26;2.05;;;0.20;;
39956;SDS011;48483;44.640;7.494;2023-04-01T11:44:38;3.85;;;0.52;;
39956;SDS011;48483;44.640;7.494;2023-04-01T11:47:22;2.75;;;0.45;;
39956;SDS011;48483;44.640;7.494;2023-04-01T11:50:15;2.67;;;0.30;;
39956;SDS011;48483;44.640;7.494;2023-04-01T11:55:54;3.05;;;0.57;;
39956;SDS011;48483;44.640;7.494;2023-04-01T12:01:44;0.40;;;0.32;;
39956;SDS011;48483;44.640;7.494;2023-04-01T12:07:25;2.35;;;0.30;;
39956;SDS011;48483;44.640;7.494;2023-04-01T12:12:54;3.83;;;0.73;;
39956;SDS011;48483;44.640;7.494;2023-04-01T12:15:32;0.57;;;0.30;;
39956;SDS011;48483;44.640;7.494;2023-04-01T12:18:11;1.10;;;0.43;;
39956;SDS011;48483;44.640;7.494;2023-04-01T12:20:46;0.20;;;0.20;;
39956;SDS011;48483;44.640;7.494;2023-04-01T12:23:23;1.85;;;0.40;;
39956;SDS011;48483;44.640;7.494;2023-04-01T12:26:23;2.45;;;0.45;;
39956;SDS011;48483;44.640;7.494;2023-04-01T12:29:23;3.97;;;0.70;;
39956;SDS011;48483;44.640;7.494;2023-04-01T12:32:12;2.50;;;1.60;;
39956;SDS011;48483;44.640;7.494;2023-04-01T12:34:53;1.20;;;0.43;;
39956;SDS011;48483;44.640;7.494;2023-04-01T12:37:39;0.90;;;0.50;;
39956;SDS011;48483;44.640;7.494;2023-04-01T12:40:31;2.55;;;0.40;;
39956;SDS011;48483;44.640;7.494;2023-04-01T12:43:20;1.17;;;0.20;;
39956;SDS011;48483;44.640;7.494;2023-04-01T12:46:01;2.63;;;1.23;;
39956;SDS011;48483;44.640;7.494;2023-04-01T12:48:42;3.28;;;1.00;;
39956;SDS011;48483;44.640;7.494;2023-04-01T12:51:48;1.15;;;0.50;;
39956;SDS011;48483;44.640;7.494;2023-04-01T12:57:25;1.23;;;0.40;;
39956;SDS011;48483;44.640;7.494;2023-04-01T13:00:12;0.20;;;0.20;;
39956;SDS011;48483;44.640;7.494;2023-04-01T13:02:57;3.75;;;2.58;;
39956;SDS011;48483;44.640;7.494;2023-04-01T13:08:38;1.77;;;0.93;;
39956;SDS011;48483;44.640;7.494;2023-04-01T13:11:14;1.85;;;0.20;;
39956;SDS011;48483;44.640;7.494;2023-04-01T13:13:56;0.98;;;0.20;;
39956;SDS011;48483;44.640;7.494;2023-04-01T13:16:43;0.93;;;0.70;;
39956;SDS011;48483;44.640;7.494;2023-04-01T13:19:17;3.40;;;0.30;;
39956;SDS011;48483;44.640;7.494;2023-04-01T13:21:52;0.10;;;0.10;;
39956;SDS011;48483;44.640;7.494;2023-04-01T13:24:28;1.77;;;0.40;;
39956;SDS011;48483;44.640;7.494;2023-04-01T13:27:05;0.95;;;0.30;;
39956;SDS011;48483;44.640;7.494;2023-04-01T13:29:40;5.13;;;1.27;;
39956;SDS011;48483;44.640;7.494;2023-04-01T13:32:16;0.73;;;0.30;;
39956;SDS011;48483;44.640;7.494;2023-04-01T13:34:56;0.40;;;0.30;;
39956;SDS011;48483;44.640;7.494;2023-04-01T13:37:37;1.23;;;0.28;;
39956;SDS011;48483;44.640;7.494;2023-04-01T13:40:19;0.20;;;0.20;;
39956;SDS011;48483;44.640;7.494;2023-04-01T13:43:02;1.02;;;0.20;;
39956;SDS011;48483;44.640;7.494;2023-04-01T13:45:36;0.22;;;0.20;;
39956;SDS011;48483;44.640;7.494;2023-04-01T13:48:30;0.30;;;0.20;;
39956;SDS011;48483;44.640;7.494;2023-04-01T13:51:24;0.35;;;0.20;;
39956;SDS011;48483;44.640;7.494;2023-04-01T14:06:02;4.70;;;1.05;;
39956;SDS011;48483;44.640;7.494;2023-04-01T14:08:55;1.42;;;0.90;;
39956;SDS011;48483;44.640;7.494;2023-04-01T14:11:38;1.60;;;0.95;;
39956;SDS011;48483;44.640;7.494;2023-04-01T14:14:14;2.70;;;0.90;;
39956;SDS011;48483;44.640;7.494;2023-04-01T14:16:58;2.83;;;1.35;;
39956;SDS011;48483;44.640;7.494;2023-04-01T14:20:14;10.18;;;7.57;;
39956;SDS011;48483;44.640;7.494;2023-04-01T14:23:28;6.18;;;5.10;;
39956;SDS011;48483;44.640;7.494;2023-04-01T14:26:14;4.57;;;3.15;;
39956;SDS011;48483;44.640;7.494;2023-04-01T14:28:57;3.15;;;2.40;;
39956;SDS011;48483;44.640;7.494;2023-04-01T14:31:36;8.10;;;6.45;;
39956;SDS011;48483;44.640;7.494;2023-04-01T14:34:18;7.95;;;7.07;;
39956;SDS011;48483;44.640;7.494;2023-04-01T14:39:29;17.55;;;15.80;;
39956;SDS011;48483;44.640;7.494;2023-04-01T14:42:18;9.48;;;8.57;;
39956;SDS011;48483;44.640;7.494;2023-04-01T14:45:12;6.82;;;5.80;;
39956;SDS011;48483;44.640;7.494;2023-04-01T14:48:00;6.97;;;6.28;;
39956;SDS011;48483;44.640;7.494;2023-04-01T14:50:40;21.77;;;19.70;;
39956;SDS011;48483;44.640;7.494;2023-04-01T14:53:11;16.70;;;14.88;;
39956;SDS011;48483;44.640;7.494;2023-04-01T14:55:49;23.67;;;21.13;;
39956;SDS011;48483;44.640;7.494;2023-04-01T14:58:18;4.30;;;3.15;;
39956;SDS011;48483;44.640;7.494;2023-04-01T15:00:48;3.25;;;2.05;;
39956;SDS011;48483;44.640;7.494;2023-04-01T15:03:24;9.20;;;7.53;;
39956;SDS011;48483;44.640;7.494;2023-04-01T15:05:56;7.68;;;3.53;;
39956;SDS011;48483;44.640;7.494;2023-04-01T15:08:34;3.33;;;1.27;;
39956;SDS011;48483;44.640;7.494;2023-04-01T15:11:19;3.45;;;2.38;;
39956;SDS011;48483;44.640;7.494;2023-04-01T15:16:46;3.15;;;1.73;;
39956;SDS011;48483;44.640;7.494;2023-04-01T15:19:24;4.05;;;2.42;;
39956;SDS011;48483;44.640;7.494;2023-04-01T15:22:17;0.63;;;0.52;;
39956;SDS011;48483;44.640;7.494;2023-04-01T15:25:04;0.52;;;0.35;;
39956;SDS011;48483;44.640;7.494;2023-04-01T15:27:43;4.07;;;0.68;;
39956;SDS011;48483;44.640;7.494;2023-04-01T15:30:18;4.88;;;1.13;;
39956;SDS011;48483;44.640;7.494;2023-04-01T15:33:01;3.45;;;0.95;;
39956;SDS011;48483;44.640;7.494;2023-04-01T15:35:41;4.57;;;0.95;;
39956;SDS011;48483;44.640;7.494;2023-04-01T15:38:16;1.75;;;0.60;;
39956;SDS011;48483;44.640;7.494;2023-04-01T15:40:52;1.80;;;0.38;;
39956;SDS011;48483;44.640;7.494;2023-04-01T15:43:27;4.10;;;0.80;;
39956;SDS011;48483;44.640;7.494;2023-04-01T15:46:09;0.50;;;0.40;;
39956;SDS011;48483;44.640;7.494;2023-04-01T15:48:47;5.68;;;0.40;;
39956;SDS011;48483;44.640;7.494;2023-04-01T15:51:30;1.10;;;0.28;;
39956;SDS011;48483;44.640;7.494;2023-04-01T15:54:27;0.43;;;0.38;;
39956;SDS011;48483;44.640;7.494;2023-04-01T15:57:16;0.80;;;0.30;;
39956;SDS011;48483;44.640;7.494;2023-04-01T16:02:48;2.25;;;0.82;;
39956;SDS011;48483;44.640;7.494;2023-04-01T16:05:28;2.85;;;0.98;;
39956;SDS011;48483;44.640;7.494;2023-04-01T16:10:54;0.75;;;0.20;;
39956;SDS011;48483;44.640;7.494;2023-04-01T16:13:40;0.32;;;0.30;;
39956;SDS011;48483;44.640;7.494;2023-04-01T16:16:17;3.42;;;0.40;;
39956;SDS011;48483;44.640;7.494;2023-04-01T16:19:03;2.92;;;0.57;;
39956;SDS011;48483;44.640;7.494;2023-04-01T16:21:48;1.05;;;0.93;;
39956;SDS011;48483;44.640;7.494;2023-04-01T16:24:22;1.10;;;0.50;;
39956;SDS011;48483;44.640;7.494;2023-04-01T16:26:57;0.55;;;0.35;;
39956;SDS011;48483;44.640;7.494;2023-04-01T16:29:32;1.98;;;0.57;;
39956;SDS011;48483;44.640;7.494;2023-04-01T16:32:10;3.63;;;1.30;;
39956;SDS011;48483;44.640;7.494;2023-04-01T16:34:46;1.25;;;0.40;;
39956;SDS011;48483;44.640;7.494;2023-04-01T16:37:27;1.23;;;0.30;;
39956;SDS011;48483;44.640;7.494;2023-04-01T16:40:03;1.08;;;0.20;;
39956;SDS011;48483;44.640;7.494;2023-04-01T16:42:43;0.35;;;0.20;;
39956;SDS011;48483;44.640;7.494;2023-04-01T16:45:17;1.70;;;0.40;;
39956;SDS011;48483;44.640;7.494;2023-04-01T16:47:53;0.22;;;0.20;;
39956;SDS011;48483;44.640;7.494;2023-04-01T16:50:23;0.57;;;0.40;;
39956;SDS011;48483;44.640;7.494;2023-04-01T16:52:55;1.73;;;0.20;;
39956;SDS011;48483;44.640;7.494;2023-04-01T16:55:43;0.40;;;0.25;;
39956;SDS011;48483;44.640;7.494;2023-04-01T16:58:18;0.45;;;0.20;;
39956;SDS011;48483;44.640;7.494;2023-04-01T17:00:48;0.65;;;0.40;;
39956;SDS011;48483;44.640;7.494;2023-04-01T17:03:17;3.08;;;0.40;;
39956;SDS011;48483;44.640;7.494;2023-04-01T17:05:49;0.50;;;0.30;;
39956;SDS011;48483;44.640;7.494;2023-04-01T17:08:27;4.22;;;0.60;;
39956;SDS011;48483;44.640;7.494;2023-04-01T17:11:05;5.25;;;0.43;;
39956;SDS011;48483;44.640;7.494;2023-04-01T17:13:38;0.93;;;0.30;;
39956;SDS011;48483;44.640;7.494;2023-04-01T17:19:11;1.10;;;0.65;;
39956;SDS011;48483;44.640;7.494;2023-04-01T17:21:54;1.05;;;0.40;;
39956;SDS011;48483;44.640;7.494;2023-04-01T17:24:37;1.10;;;0.43;;
39956;SDS011;48483;44.640;7.494;2023-04-01T17:27:18;0.30;;;0.30;;
39956;SDS011;48483;44.640;7.494;2023-04-01T17:29:57;1.60;;;0.57;;
39956;SDS011;48483;44.640;7.494;2023-04-01T17:32:38;1.65;;;0.52;;
39956;SDS011;48483;44.640;7.494;2023-04-01T17:35:14;2.35;;;0.38;;
39956;SDS011;48483;44.640;7.494;2023-04-01T17:37:46;4.97;;;0.70;;
39956;SDS011;48483;44.640;7.494;2023-04-01T17:40:33;0.60;;;0.30;;
39956;SDS011;48483;44.640;7.494;2023-04-01T17:43:10;1.40;;;0.50;;
39956;SDS011;48483;44.640;7.494;2023-04-01T17:45:47;2.08;;;0.40;;
39956;SDS011;48483;44.640;7.494;2023-04-01T17:48:24;1.45;;;0.50;;
39956;SDS011;48483;44.640;7.494;2023-04-01T17:51:07;0.88;;;0.50;;